Ashland, NY

5:03 PM EDT on July 29, 2015 (GMT -0400)
Poverty Flats | | Change Station
CLOSE
Current Station
Personal Weather Station
Location: Hunter, NY
Elevation: 1598 ft
Nearby Weather Stations

Elev 1598 ft 42.21 °N, 74.22 °W | Updated 14 minutes ago

Clear
Clear
93.2 °F
Feels Like 97 °F
N
1.7
Wind Variable Wind from SE

Today
High -- | Low -- °F
--% Chance of Precip.
Yesterday
High -- | Low -- °F
Precip. -- in
5:46 AM 8:19 PM
Waxing Gibbous, 97% visible
Pressure 29.89 in
Visibility 10.0 miles
Clouds Few 5000 ft
Few 6500 ft
Scattered Clouds 20000 ft
Mostly Cloudy 27000 ft
Heat Index 97 °F
Dew Point 67 °F
Humidity 42%
Rainfall 0.00 in
Snow Depth Not available.
UV 2 out of 12
Pollen 6.30 out of 12
Air Quality Not available.
Flu Activity Not available.
METAR KALB 292051Z 19010KT 10SM FEW050 FEW065 SCT200 BKN270 33/18 A2990 RMK AO2 SLP122 T03330183 56018

More Conditions Fewer Conditions

Pressure 29.89 in
Visibility 10.0 miles
Clouds Few 5000 ft
Few 6500 ft
Scattered Clouds 20000 ft
Mostly Cloudy 27000 ft
Heat Index 97 °F
Dew Point 67 °F
Humidity 42%
Rainfall 0.00 in
Snow Depth Not available.
UV 2 out of 12
Pollen 6.30 out of 12
Air Quality Not available.
Flu Activity Not available.
METAR KALB 292051Z 19010KT 10SM FEW050 FEW065 SCT200 BKN270 33/18 A2990 RMK AO2 SLP122 T03330183 56018

More Conditions Fewer Conditions

10-Day Weather Forecast

×

Almanac

Astronomy

Jul. 29, 2015 Rise Set
Actual Time
Civil Twilight
Nautical Twilight
Astronomical Twilight
Moon
Length of Visible Light
Length of Day
Tomorrow will be .
, % of the Moon is Illuminated

Today's Extremes

State Highs State Lows

Community

WunderPhotos

Upload Photos

1,842,175 photos uploaded!

WunderBlogs® & News

Nearby

Air Quality

  Air Quality AQ Index Pollutant
Not available.

Snow Depth

Station Depth Elevation

Earthquake Activity

City Distance Mag. Time & Date
Minimum magnitude displayed is 2.5.

Coastal Water Temperatures

Place Temperature

Stations

Nearby Weather Stations

Station Location Temp. Windchill Dew Point Humidity Wind Precip. Elev Updated Type